Time;durP1;ratioP1;P1;durP2;ratioP2;P2;SDS_P1;SDS_P2;PMS_P1;PMS_P2;Temp;Humidity;BMP_temperature;BMP_pressure;BME280_temperature;BME280_humidity;BME280_pressure;Samples;Min_cycle;Max_cycle;Signal;HPM_P1;HPM_P2
2022/01/25 00:29:35;;;;;;;926.53;116.38;;;;;;;-16.11;73.80;101129.16;5074041;28;20055;-76
2022/01/25 00:32:01;;;;;;;928.20;108.70;;;;;;;-16.24;74.71;101117.38;5074413;28;20087;-76
2022/01/25 00:34:28;;;;;;;682.55;89.50;;;;;;;-16.26;74.98;101124.06;5057022;28;20052;-76
2022/01/25 00:36:54;;;;;;;828.03;120.97;;;;;;;-16.24;75.44;101127.63;5074147;28;20052;-76
2022/01/25 00:39:20;;;;;;;887.58;123.60;;;;;;;-16.06;74.85;101120.91;5041078;28;20044;-76
2022/01/25 00:41:46;;;;;;;480.02;97.15;;;;;;;-15.88;74.87;101112.50;5058290;28;20043;-76
2022/01/25 00:44:13;;;;;;;443.65;97.55;;;;;;;-15.78;74.25;101107.94;5032304;28;20033;-77
2022/01/25 00:46:39;;;;;;;519.10;93.60;;;;;;;-15.76;74.27;101096.09;5095365;28;20116;-78
2022/01/25 00:49:06;;;;;;;544.88;98.95;;;;;;;-15.64;73.27;101113.78;5065044;28;20040;-76
2022/01/25 00:54:11;;;;;;;444.13;97.80;;;;;;;-15.58;73.40;101105.53;5057293;28;20468;-77
2022/01/25 00:56:39;;;;;;;266.33;58.78;;;;;;;-15.78;73.10;101101.94;5076301;28;20135;-77
2022/01/25 00:59:07;;;;;;;244.35;61.45;;;;;;;-16.02;73.40;101110.06;5074914;28;20052;-76
2022/01/25 01:01:33;;;;;;;200.55;63.38;;;;;;;-16.16;73.44;101121.25;5040603;28;20036;-77
2022/01/25 01:03:59;;;;;;;158.98;44.08;;;;;;;-16.25;73.19;101098.53;5023625;28;20044;-77
2022/01/25 01:06:26;;;;;;;145.45;42.47;;;;;;;-16.30;73.33;101117.03;5056808;28;20110;-78
2022/01/25 01:08:53;;;;;;;211.40;57.13;;;;;;;-16.61;73.32;101105.06;5073561;28;20127;-76
2022/01/25 01:11:26;;;;;;;195.10;59.38;;;;;;;-16.63;73.85;101116.88;5040465;28;20044;-78
2022/01/25 01:14:05;;;;;;;147.98;50.95;;;;;;;-16.68;74.03;101123.44;5057746;28;20048;-76
2022/01/25 01:17:07;;;;;;;270.33;67.72;;;;;;;-16.61;74.25;101122.09;5074526;28;20051;-77
2022/01/25 01:30:45;;;;;;;217.32;66.50;;;;;;;-15.65;73.50;101099.22;5004651;28;20049;-78
2022/01/25 01:44:24;;;;;;;243.15;70.25;;;;;;;-15.22;72.25;101083.50;5031674;28;20290;-77
2022/01/25 01:47:20;;;;;;;257.65;77.60;;;;;;;-15.26;71.70;101086.69;5039989;28;20048;-77
2022/01/25 01:49:43;;;;;;;277.98;75.43;;;;;;;-15.32;71.33;101078.69;5058803;28;20079;-77
2022/01/25 01:52:09;;;;;;;;;;;;;;;-15.36;71.46;101069.06;5073415;28;20070;-77
2022/01/25 01:54:35;;;;;;;240.80;67.03;;;;;;;-15.41;71.43;101066.28;5089556;28;19921;-77
2022/01/25 01:57:01;;;;;;;273.75;74.00;;;;;;;-15.33;71.50;101064.09;5073065;28;20071;-77
2022/01/25 01:59:27;;;;;;;323.17;81.35;;;;;;;-15.23;71.53;101076.56;5023531;28;20399;-78
2022/01/25 02:01:54;;;;;;;288.88;76.25;;;;;;;-15.21;71.19;101070.72;5039700;28;20040;-78
2022/01/25 02:04:20;;;;;;;317.73;86.45;;;;;;;-15.24;71.09;101060.31;5040207;28;20048;-77
2022/01/25 02:06:46;;;;;;;258.23;79.68;;;;;;;-15.14;71.52;101061.66;5056547;28;20063;-80
2022/01/25 02:09:13;;;;;;;218.43;77.07;;;;;;;-15.04;70.91;101056.19;5039259;28;20048;-78
2022/01/25 02:11:39;;;;;;;282.67;86.03;;;;;;;-15.03;70.98;101045.13;5072337;28;20044;-79
2022/01/25 02:14:08;;;;;;;248.27;80.45;;;;;;;-14.98;70.66;101035.09;5022765;28;20039;-79
2022/01/25 02:24:46;;;;;;;238.43;77.22;;;;;;;-15.12;70.77;101044.66;5058628;28;20086;-80
2022/01/25 02:27:13;;;;;;;252.65;77.38;;;;;;;-14.91;70.74;101051.66;5055299;28;20051;-78
2022/01/25 02:29:39;;;;;;;233.35;77.97;;;;;;;-14.82;70.39;101049.53;5055542;28;20066;-78
2022/01/25 02:32:06;;;;;;;258.55;84.43;;;;;;;-14.72;70.21;101046.63;5022255;28;20044;-77
2022/01/25 02:34:32;;;;;;;311.80;88.07;;;;;;;-14.66;69.82;101046.94;5038865;28;20051;-78
2022/01/25 02:36:59;;;;;;;340.67;93.40;;;;;;;-14.62;69.61;101064.25;5071859;28;20057;-78
2022/01/25 02:39:26;;;;;;;355.17;98.60;;;;;;;-14.59;69.64;101055.78;5071883;28;20055;-77
2022/01/25 02:41:52;;;;;;;334.58;91.55;;;;;;;-14.63;69.69;101051.31;5054881;28;20057;-77
2022/01/25 02:44:24;;;;;;;321.83;91.10;;;;;;;-14.62;69.13;101048.84;5022175;28;20040;-79
2022/01/25 02:49:17;;;;;;;376.38;93.93;;;;;;;-14.59;68.85;101046.44;5038219;28;20044;-78
2022/01/25 02:51:46;;;;;;;382.45;98.40;;;;;;;-14.60;68.92;101042.06;5088567;28;20048;-78
2022/01/25 02:54:12;;;;;;;402.67;100.55;;;;;;;-14.77;68.45;101035.25;5039101;28;20064;-78
2022/01/25 02:56:38;;;;;;;358.98;94.43;;;;;;;-14.73;68.63;101044.88;5038466;28;20454;-78
2022/01/25 02:59:05;;;;;;;356.05;93.07;;;;;;;-14.85;68.50;101026.28;5054945;28;20095;-78
2022/01/25 03:01:32;;;;;;;369.55;88.38;;;;;;;-14.78;68.33;101049.78;5022134;28;20044;-78
2022/01/25 03:03:58;;;;;;;364.92;86.40;;;;;;;-14.74;68.47;101053.34;5071582;28;20044;-78
2022/01/25 03:06:24;;;;;;;369.67;92.80;;;;;;;-14.69;68.35;101057.03;5071623;28;20040;-77
2022/01/25 03:08:50;;;;;;;345.08;89.80;;;;;;;-14.77;68.01;101027.56;5088734;28;20040;-77
2022/01/25 03:11:18;;;;;;;392.30;90.40;;;;;;;-14.74;68.14;101037.94;5072651;28;20442;-77
2022/01/25 03:13:54;;;;;;;407.60;91.43;;;;;;;-14.69;67.71;101036.50;5054875;28;20479;-77
2022/01/25 03:16:32;;;;;;;377.13;86.50;;;;;;;-14.69;67.84;101036.50;5072875;28;20049;-78
2022/01/25 03:19:01;;;;;;;402.52;86.32;;;;;;;-14.72;67.33;101032.09;5039333;28;20037;-78
2022/01/25 03:23:54;;;;;;;372.80;88.28;;;;;;;-14.79;67.35;101013.75;5071871;28;20036;-78
2022/01/25 03:26:20;;;;;;;349.88;83.00;;;;;;;-14.68;67.75;101012.59;5023785;28;20044;-76
2022/01/25 03:28:46;;;;;;;338.02;83.57;;;;;;;-14.72;67.44;101001.31;5059608;28;20052;-77
2022/01/25 03:31:12;;;;;;;345.08;76.40;;;;;;;-14.60;67.54;101021.53;5058748;28;20047;-78
2022/01/25 03:33:39;;;;;;;348.55;83.85;;;;;;;-14.52;67.93;101009.94;5058373;28;20131;-77
2022/01/25 03:36:05;;;;;;;334.27;75.35;;;;;;;-14.42;67.94;101020.63;5075348;28;20068;-78
2022/01/25 03:38:31;;;;;;;318.83;78.20;;;;;;;-14.35;67.90;101002.13;5025838;28;20051;-78
2022/01/25 03:40:57;;;;;;;350.73;78.22;;;;;;;-14.30;67.23;101016.91;5041597;28;20517;-79
2022/01/25 03:43:23;;;;;;;331.95;79.13;;;;;;;-14.30;67.22;101003.22;5092244;28;20543;-78
2022/01/25 03:46:07;;;;;;;342.52;82.43;;;;;;;-14.24;67.18;101016.34;5058306;28;20047;-76
2022/01/25 03:50:59;;;;;;;384.40;86.85;;;;;;;-14.18;67.60;101010.59;5041190;28;20572;-76
2022/01/25 03:53:26;;;;;;;384.52;81.63;;;;;;;-14.13;67.81;101004.88;5024776;28;20380;-76
2022/01/25 03:55:52;;;;;;;496.30;90.18;;;;;;;-14.12;67.53;101006.63;5028642;28;20097;-76
2022/01/25 03:58:19;;;;;;;401.67;84.85;;;;;;;-14.20;67.60;101001.13;5063779;28;20040;-79
2022/01/25 04:00:45;;;;;;;454.92;88.93;;;;;;;-14.08;69.45;101017.91;5047918;28;20040;-77
2022/01/25 04:03:53;;;;;;;524.63;95.50;;;;;;;-14.00;69.76;101012.31;5062816;28;20078;-77
2022/01/25 04:06:05;;;;;;;664.25;109.18;;;;;;;-13.97;69.83;101007.31;5094137;28;20079;-78
2022/01/25 04:08:33;;;;;;;511.42;98.28;;;;;;;-13.90;69.44;101005.03;5077789;28;20035;-76
2022/01/25 04:11:00;;;;;;;520.42;103.63;;;;;;;-13.90;69.79;101002.47;5094974;28;20274;-77
2022/01/25 04:13:26;;;;;;;552.10;102.10;;;;;;;-13.82;69.88;101011.38;5094473;28;20096;-77
2022/01/25 04:15:55;;;;;;;760.83;107.72;;;;;;;-13.89;69.38;101001.63;5077990;28;20146;-77
2022/01/25 04:18:46;;;;;;;819.45;100.47;;;;;;;-13.88;69.55;100995.69;5094633;28;20039;-79
2022/01/25 04:21:28;;;;;;;621.75;93.82;;;;;;;-13.96;69.95;100998.78;5067477;28;20093;-77
2022/01/25 04:26:39;;;;;;;824.25;114.85;;;;;;;-14.18;70.34;100993.47;5090910;28;20126;-76
2022/01/25 04:29:05;;;;;;;1041.65;115.22;;;;;;;-14.28;71.26;100983.63;5048950;28;20103;-78
2022/01/25 04:31:31;;;;;;;771.30;108.55;;;;;;;-14.37;71.70;100983.19;5095056;28;20039;-76
2022/01/25 04:34:25;;;;;;;632.88;101.15;;;;;;;-14.29;72.01;100997.25;5043893;28;20048;-78
2022/01/25 04:50:52;;;;;;;918.95;132.30;;;;;;;-14.39;72.32;100972.84;5093420;28;20048;-79
2022/01/25 04:55:48;;;;;;;837.30;136.75;;;;;;;-14.38;72.36;100981.44;5076714;28;20032;-76
2022/01/25 04:58:23;;;;;;;706.60;119.85;;;;;;;-14.37;72.36;100983.19;5076301;28;20036;-75
2022/01/25 05:00:50;;;;;;;647.88;121.63;;;;;;;-14.43;72.23;100975.22;5076132;28;20063;-76
2022/01/25 05:03:23;;;;;;;826.15;126.90;;;;;;;-14.45;72.13;100970.88;5093019;28;20058;-78
2022/01/25 05:05:57;;;;;;;598.92;115.38;;;;;;;-14.38;71.44;100972.03;5093657;28;20534;-76
2022/01/25 05:08:38;;;;;;;520.97;108.25;;;;;;;-14.40;71.17;100963.41;5093163;28;20040;-78
2022/01/25 05:11:20;;;;;;;437.90;101.38;;;;;;;-14.34;70.95;100965.34;5094346;28;20059;-76
2022/01/25 05:16:30;;;;;;;414.63;103.90;;;;;;;-14.26;70.01;100976.84;5059694;28;20068;-78
2022/01/25 05:24:20;;;;;;;362.90;86.07;;;;;;;-14.28;69.14;100966.53;5092754;28;20050;-78
2022/01/25 05:26:46;;;;;;;408.30;98.28;;;;;;;-14.31;68.53;100970.63;5076239;28;20036;-78
2022/01/25 05:29:12;;;;;;;354.10;92.30;;;;;;;-14.18;69.08;100990.91;5094120;28;20586;-78
2022/01/25 05:31:39;;;;;;;405.15;92.53;;;;;;;-14.23;68.17;100997.53;5042074;28;20048;-78
2022/01/25 05:34:08;;;;;;;383.55;92.65;;;;;;;-14.18;68.10;100979.75;5059038;28;20415;-77
2022/01/25 05:36:35;;;;;;;300.88;78.43;;;;;;;-13.99;68.09;100993.53;5059660;28;20040;-77
2022/01/25 05:39:08;;;;;;;315.33;76.45;;;;;;;-13.92;67.59;100994.66;5076197;28;20505;-76
2022/01/25 05:41:34;;;;;;;233.82;63.80;;;;;;;-13.84;66.81;100992.44;5027658;28;20122;-76
2022/01/25 05:44:25;;;;;;;215.73;60.10;;;;;;;-13.81;66.66;100977.16;5059123;28;20105;-78
2022/01/25 05:47:05;;;;;;;239.82;60.92;;;;;;;-13.86;65.41;100987.22;5077854;28;20043;-79
2022/01/25 05:49:35;;;;;;;194.38;52.65;;;;;;;-13.95;64.73;100979.13;5077973;28;20047;-78
2022/01/25 05:52:06;;;;;;;238.85;61.55;;;;;;;-13.96;64.96;100978.22;5078725;28;20100;-76
2022/01/25 05:54:32;;;;;;;179.25;48.03;;;;;;;-14.08;64.48;100977.69;5076411;28;20510;-77
2022/01/25 05:56:58;;;;;;;180.02;49.25;;;;;;;-14.08;64.53;100972.53;5059487;28;20048;-76
2022/01/25 05:59:24;;;;;;;172.93;48.47;;;;;;;-14.08;64.56;100962.25;5059010;28;20047;-77
2022/01/25 06:01:51;;;;;;;241.98;53.58;;;;;;;-13.86;64.67;100970.94;5092413;28;20036;-78
2022/01/25 06:04:17;;;;;;;198.65;52.15;;;;;;;-13.87;64.34;100962.34;5076199;28;20044;-76
2022/01/25 06:06:43;;;;;;;238.38;53.42;;;;;;;-13.88;63.91;100959.69;5092481;28;20040;-77
2022/01/25 06:09:09;;;;;;;217.23;54.13;;;;;;;-13.75;64.13;100973.16;5058891;28;20032;-76
2022/01/25 06:11:37;;;;;;;202.55;54.55;;;;;;;-13.61;63.82;100965.16;5059022;28;20499;-76
2022/01/25 06:14:03;;;;;;;219.35;55.03;;;;;;;-13.38;64.00;100968.72;5075606;28;20097;-77
2022/01/25 06:16:29;;;;;;;181.93;49.55;;;;;;;-13.21;63.47;100971.13;5075627;28;20232;-77
2022/01/25 06:18:56;;;;;;;159.35;45.78;;;;;;;-13.18;62.52;100982.38;5092402;28;20448;-78
2022/01/25 06:21:22;;;;;;;196.57;51.10;;;;;;;-13.20;62.11;100972.00;5091990;28;20522;-77
2022/01/25 06:23:48;;;;;;;188.07;50.88;;;;;;;-13.15;62.06;100967.94;5075085;28;20040;-77
2022/01/25 06:26:14;;;;;;;181.75;50.08;;;;;;;-13.04;62.38;100958.97;5075420;28;20051;-77
2022/01/25 06:28:40;;;;;;;182.30;50.28;;;;;;;-13.11;61.43;100964.69;5041832;28;20139;-76
2022/01/25 06:31:07;;;;;;;200.15;54.47;;;;;;;-13.10;61.65;100960.41;5075025;28;20047;-78
2022/01/25 06:33:34;;;;;;;223.68;55.67;;;;;;;-13.07;62.02;100951.13;5058610;28;20052;-78
2022/01/25 06:36:00;;;;;;;209.90;52.25;;;;;;;-12.99;61.72;100952.28;5058655;28;20146;-79
2022/01/25 06:38:28;;;;;;;210.60;53.35;;;;;;;-12.93;61.36;100945.66;5041750;28;20453;-78
2022/01/25 06:40:54;;;;;;;197.30;53.97;;;;;;;-12.75;61.33;100955.00;5059144;28;20043;-78
2022/01/25 06:43:20;;;;;;;210.95;53.53;;;;;;;-12.63;61.01;100949.44;5057966;28;20075;-77
2022/01/25 06:45:55;;;;;;;235.98;58.05;;;;;;;-12.48;60.97;100957.75;5091652;28;20412;-76
2022/01/25 06:48:21;;;;;;;223.68;56.47;;;;;;;-12.44;60.02;100934.69;5059615;28;20067;-77
2022/01/25 06:50:47;;;;;;;199.60;53.15;;;;;;;-12.29;60.26;100930.97;5091743;28;20119;-78
2022/01/25 06:53:13;;;;;;;213.45;52.53;;;;;;;-12.15;60.31;100934.03;5041935;28;20035;-76
2022/01/25 06:55:40;;;;;;;193.25;54.33;;;;;;;-11.98;59.94;100936.38;5074813;28;20051;-76
2022/01/25 06:58:06;;;;;;;178.35;49.95;;;;;;;-11.90;59.74;100929.78;5074506;28;20036;-78
2022/01/25 07:00:32;;;;;;;203.57;56.55;;;;;;;-11.83;59.38;100917.13;5091532;28;20047;-77
2022/01/25 07:02:58;;;;;;;145.95;43.25;;;;;;;-11.83;58.78;100913.72;5057192;28;20063;-77
2022/01/25 07:05:24;;;;;;;165.27;51.08;;;;;;;-12.05;58.12;100912.06;5056981;28;20131;-80
2022/01/25 07:07:52;;;;;;;171.52;51.45;;;;;;;-11.90;58.60;100907.47;5089602;28;20047;-79
2022/01/25 07:10:17;;;;;;;168.07;50.83;;;;;;;-11.70;58.46;100902.09;5043769;28;20036;-79
2022/01/25 07:12:44;;;;;;;168.68;49.05;;;;;;;-11.60;58.30;100899.00;5058750;28;20097;-74
2022/01/25 07:15:10;;;;;;;160.07;46.97;;;;;;;-11.52;58.17;100893.25;5091633;28;20044;-79
2022/01/25 07:17:36;;;;;;;228.70;70.95;;;;;;;-11.40;57.61;100889.34;5074985;28;20491;-79
2022/01/25 07:20:04;;;;;;;136.40;44.53;;;;;;;-11.35;57.60;100887.81;5091305;28;20094;-79
2022/01/25 07:22:30;;;;;;;130.45;38.10;;;;;;;-11.20;57.56;100888.31;5041479;28;20044;-82
2022/01/25 07:24:56;;;;;;;125.22;40.47;;;;;;;-11.29;56.94;100890.56;5074606;28;20044;-76
2022/01/25 07:27:22;;;;;;;112.10;36.97;;;;;;;-11.48;56.79;100873.59;5091381;28;20174;-82
2022/01/25 07:29:48;;;;;;;126.72;39.88;;;;;;;-11.47;57.38;100885.66;5074104;28;20047;-78
2022/01/25 07:32:14;;;;;;;107.65;37.08;;;;;;;-11.38;57.21;100882.53;5074428;28;20040;-78
2022/01/25 07:34:40;;;;;;;105.50;36.65;;;;;;;-11.22;56.85;100882.19;5092206;28;20056;-83
2022/01/25 07:37:06;;;;;;;106.13;36.90;;;;;;;-11.05;56.65;100875.00;5057867;28;20040;-77
2022/01/25 07:39:32;;;;;;;109.15;34.88;;;;;;;-10.86;56.72;100881.63;5074557;28;20181;-77
2022/01/25 07:41:59;;;;;;;106.70;37.47;;;;;;;-10.79;56.05;100874.09;5092543;28;20134;-79
2022/01/25 07:44:36;;;;;;;112.63;37.85;;;;;;;-10.76;55.64;100871.59;5076204;28;20487;-80
2022/01/25 07:47:02;;;;;;;138.80;40.03;;;;;;;-10.72;55.44;100864.81;5041860;28;20097;-78
2022/01/25 07:49:29;;;;;;;119.18;39.35;;;;;;;-10.72;55.72;100864.81;5091239;28;20123;-81
2022/01/25 07:51:55;;;;;;;107.47;37.65;;;;;;;-10.46;56.10;100862.13;5058176;28;20145;-80
2022/01/25 07:54:21;;;;;;;121.43;42.55;;;;;;;-10.29;55.38;100850.56;5057096;28;20562;-79
2022/01/25 07:56:47;;;;;;;125.18;43.42;;;;;;;-10.30;54.67;100846.25;5057968;28;20036;-79
2022/01/25 07:59:13;;;;;;;135.10;43.53;;;;;;;-10.13;54.87;100842.34;5090795;28;20048;-79
2022/01/25 08:01:40;;;;;;;141.82;44.47;;;;;;;-10.06;54.20;100848.59;5074428;28;20044;-82
2022/01/25 08:04:08;;;;;;;130.13;45.17;;;;;;;-9.95;54.23;100848.88;5057581;28;20399;-80
2022/01/25 08:06:35;;;;;;;119.17;44.40;;;;;;;-9.87;53.62;100842.19;5078862;28;20093;-81
2022/01/25 08:09:01;;;;;;;142.40;46.35;;;;;;;-9.75;53.65;100845.09;5083375;28;20286;-77
2022/01/25 08:11:28;;;;;;;126.57;47.45;;;;;;;-9.61;53.48;100848.91;5079180;28;20048;-77
2022/01/25 08:14:11;;;;;;;128.20;43.25;;;;;;;-9.74;52.89;100835.59;5077032;28;20093;-78
2022/01/25 08:16:41;;;;;;;211.88;52.03;;;;;;;-9.72;52.36;100840.00;5096758;27;20067;-81
2022/01/25 08:19:08;;;;;;;141.93;49.35;;;;;;;-9.52;52.51;100842.22;5088062;28;20044;-77
2022/01/25 08:21:34;;;;;;;140.00;46.92;;;;;;;-9.43;52.04;100837.28;5065628;28;20480;-78
2022/01/25 08:23:59;;;;;;;132.18;40.95;;;;;;;-9.46;51.56;100832.88;5090221;28;20063;-80
2022/01/25 08:26:25;;;;;;;148.48;49.38;;;;;;;-9.63;51.48;100823.81;5057052;28;20464;-80
2022/01/25 08:28:52;;;;;;;158.00;49.05;;;;;;;-9.45;51.11;100829.47;5073414;28;20082;-81
2022/01/25 08:31:19;;;;;;;145.13;47.55;;;;;;;-9.48;50.10;100828.50;5040692;28;20052;-78
2022/01/25 08:33:45;;;;;;;176.38;49.28;;;;;;;-9.52;50.56;100824.09;5090178;28;20056;-80
2022/01/25 08:36:12;;;;;;;155.25;52.40;;;;;;;-9.45;50.30;100824.28;5039866;28;20041;-80
2022/01/25 08:38:38;;;;;;;155.48;48.00;;;;;;;-9.50;49.97;100817.25;5090720;28;20036;-80
2022/01/25 08:41:06;;;;;;;175.85;53.58;;;;;;;-9.57;49.17;100823.97;5057296;28;20079;-79
2022/01/25 08:43:35;;;;;;;155.90;50.58;;;;;;;-9.44;49.67;100826.06;5073693;28;20041;-78
2022/01/25 08:46:02;;;;;;;135.88;44.17;;;;;;;-9.35;49.13;100815.91;5073130;28;20044;-78
2022/01/25 08:48:28;;;;;;;156.68;50.00;;;;;;;-9.38;49.51;100818.41;5057000;28;20491;-77
2022/01/25 08:50:54;;;;;;;153.63;48.15;;;;;;;-9.37;49.32;100811.50;5076460;28;20083;-78
2022/01/25 08:53:20;;;;;;;152.80;50.55;;;;;;;-9.40;49.36;100809.75;5090084;28;20055;-77
2022/01/25 08:55:46;;;;;;;168.35;49.20;;;;;;;-9.35;49.87;100809.84;5074522;28;20131;-77
2022/01/25 08:58:12;;;;;;;161.52;51.25;;;;;;;-9.23;49.84;100804.94;5040060;28;20067;-78
2022/01/25 09:00:38;;;;;;;163.93;49.20;;;;;;;-9.16;49.59;100809.44;5073097;28;20186;-76
2022/01/25 09:03:04;;;;;;;194.00;53.95;;;;;;;-9.00;50.34;100802.00;5056786;28;20047;-81
2022/01/25 09:05:31;;;;;;;174.75;53.38;;;;;;;-8.82;49.61;100805.00;5039606;28;20048;-77
2022/01/25 09:07:58;;;;;;;172.60;50.97;;;;;;;-8.71;49.42;100795.75;5089858;28;20045;-80
2022/01/25 09:10:25;;;;;;;177.93;53.38;;;;;;;-8.77;49.59;100794.75;5057049;28;20041;-79
2022/01/25 09:12:51;;;;;;;160.60;49.40;;;;;;;-8.75;49.86;100798.25;5073280;28;20206;-76
2022/01/25 09:15:17;;;;;;;188.85;49.90;;;;;;;-8.69;49.83;100786.28;5072718;28;20051;-76
2022/01/25 09:17:44;;;;;;;178.60;51.78;;;;;;;-8.81;49.83;100794.66;5073152;28;20495;-79
2022/01/25 09:20:10;;;;;;;158.80;51.38;;;;;;;-8.54;49.90;100797.81;5072299;28;20800;-79
2022/01/25 09:22:36;;;;;;;145.95;48.90;;;;;;;-8.46;49.70;100794.53;5073386;28;20040;-79
2022/01/25 09:25:02;;;;;;;164.30;52.03;;;;;;;-8.36;49.73;100787.78;5073735;28;20488;-78
2022/01/25 09:27:29;;;;;;;171.10;51.97;;;;;;;-8.34;49.67;100786.97;5056820;28;20075;-78
2022/01/25 09:29:55;;;;;;;168.38;49.05;;;;;;;-8.23;49.53;100775.94;5031406;28;20515;-77
2022/01/25 09:32:21;;;;;;;158.82;46.72;;;;;;;-8.11;49.43;100773.56;5069589;28;20104;-79
2022/01/25 09:34:48;;;;;;;154.07;45.90;;;;;;;-8.34;49.22;100760.16;5060270;28;20040;-76
2022/01/25 09:37:14;;;;;;;166.68;51.58;;;;;;;-8.14;49.33;100774.38;5077140;28;20048;-79
2022/01/25 09:39:42;;;;;;;160.05;48.88;;;;;;;-8.07;49.32;100778.81;5077474;28;20075;-80
2022/01/25 09:42:10;;;;;;;145.45;45.90;;;;;;;-8.18;48.91;100772.56;5045149;28;20058;-79
2022/01/25 09:44:38;;;;;;;154.82;45.22;;;;;;;-8.20;49.38;100768.19;5061862;28;20040;-80
2022/01/25 09:47:04;;;;;;;137.15;46.13;;;;;;;-7.96;48.86;100768.63;5062332;28;20135;-79
2022/01/25 09:49:31;;;;;;;146.90;48.50;;;;;;;-7.80;48.84;100764.59;5060846;28;20131;-79
2022/01/25 09:51:58;;;;;;;103.07;35.03;;;;;;;-7.86;48.73;100760.19;5077167;28;20047;-78
2022/01/25 09:54:24;;;;;;;130.13;40.35;;;;;;;-7.86;49.20;100748.91;5076459;28;20490;-78
2022/01/25 09:56:50;;;;;;;134.50;43.17;;;;;;;-7.98;48.64;100751.28;5092631;28;20093;-77
2022/01/25 09:59:16;;;;;;;134.65;42.97;;;;;;;-7.79;49.72;100745.56;5039588;28;20048;-77
2022/01/25 10:01:42;;;;;;;148.18;44.60;;;;;;;-7.51;49.16;100741.69;5046162;28;20047;-76
2022/01/25 10:04:31;;;;;;;160.98;44.67;;;;;;;-7.38;48.78;100742.75;5059838;28;20602;-77
2022/01/25 10:06:57;;;;;;;134.60;44.50;;;;;;;-7.38;48.53;100737.56;5054831;28;20037;-78
2022/01/25 10:09:25;;;;;;;141.30;38.88;;;;;;;-7.25;48.20;100723.91;5091423;28;20042;-79
2022/01/25 10:11:51;;;;;;;134.68;44.03;;;;;;;-7.13;48.24;100728.41;5076104;28;20046;-78
2022/01/25 10:14:18;;;;;;;110.70;36.03;;;;;;;-7.28;48.34;100723.84;5092396;28;20051;-79
2022/01/25 10:16:45;;;;;;;110.18;32.22;;;;;;;-7.28;48.05;100718.66;5092402;28;20146;-79
2022/01/25 10:19:12;;;;;;;67.32;26.38;;;;;;;-7.34;47.52;100713.34;5092249;28;20044;-76
2022/01/25 10:21:40;;;;;;;78.72;26.38;;;;;;;-7.46;47.69;100733.97;5075618;28;20388;-77
2022/01/25 10:24:19;;;;;;;63.13;22.85;;;;;;;-7.35;47.91;100729.81;5059101;28;20044;-76
2022/01/25 10:26:56;;;;;;;63.20;23.35;;;;;;;-7.39;48.23;100715.03;5094031;28;20070;-76
2022/01/25 10:29:30;;;;;;;57.92;21.10;;;;;;;-7.35;47.47;100722.00;5075634;28;20048;-76
2022/01/25 10:31:58;;;;;;;45.67;17.08;;;;;;;-7.33;47.70;100715.13;5058919;28;20044;-76
2022/01/25 10:34:26;;;;;;;64.15;23.92;;;;;;;-7.28;47.12;100718.66;5075071;28;20055;-76
2022/01/25 10:36:53;;;;;;;64.78;23.23;;;;;;;-7.47;47.19;100724.44;5057854;28;20047;-78
2022/01/25 10:39:22;;;;;;;78.43;25.15;;;;;;;-7.38;47.27;100722.84;5075141;28;20040;-77
2022/01/25 10:41:48;;;;;;;67.38;24.02;;;;;;;-7.28;47.50;100713.47;5058879;28;20097;-79
2022/01/25 10:44:14;;;;;;;73.90;25.25;;;;;;;-7.24;46.73;100710.06;5059003;28;20048;-79
2022/01/25 10:46:40;;;;;;;79.40;27.63;;;;;;;-7.21;46.74;100720.50;5042044;28;20040;-79
2022/01/25 10:49:11;;;;;;;85.95;27.63;;;;;;;-7.26;46.33;100696.16;5075054;28;20044;-77
2022/01/25 10:51:45;;;;;;;61.70;22.42;;;;;;;-7.08;46.52;100713.72;5052118;28;20047;-79
2022/01/25 10:54:20;;;;;;;73.22;22.00;;;;;;;-7.16;46.50;100711.03;5055564;28;20047;-78
2022/01/25 10:56:57;;;;;;;93.53;26.75;;;;;;;-7.13;46.05;100702.41;5072278;28;20036;-79
2022/01/25 10:59:32;;;;;;;67.70;25.60;;;;;;;-7.43;46.02;100692.47;5039564;28;20048;-76
2022/01/25 11:01:59;;;;;;;80.35;28.10;;;;;;;-7.29;46.36;100700.47;5073440;28;20036;-77
2022/01/25 11:04:31;;;;;;;67.00;26.27;;;;;;;-7.46;46.31;100697.59;5071398;28;20047;-76
2022/01/25 11:07:04;;;;;;;84.22;26.77;;;;;;;-7.40;46.63;100714.16;5071222;28;20090;-74
2022/01/25 11:09:39;;;;;;;74.30;25.45;;;;;;;-7.44;46.46;100711.50;5088400;28;20048;-76
2022/01/25 11:12:07;;;;;;;69.82;27.52;;;;;;;-7.53;46.25;100703.56;5055674;28;20049;-76
2022/01/25 11:14:54;;;;;;;77.00;28.65;;;;;;;-7.52;46.26;100716.59;5071840;28;20459;-78
2022/01/25 11:17:21;;;;;;;85.40;30.10;;;;;;;-7.44;46.29;100719.31;5074603;28;20181;-78
2022/01/25 11:19:47;;;;;;;80.10;28.77;;;;;;;-7.25;45.77;100716.09;5022316;28;20036;-78
2022/01/25 11:22:19;;;;;;;87.20;30.70;;;;;;;-7.24;45.42;100710.06;5022517;28;20388;-78
2022/01/25 11:24:50;;;;;;;113.90;30.85;;;;;;;-7.29;45.12;100706.53;5027951;28;20083;-75
2022/01/25 11:27:16;;;;;;;81.63;30.02;;;;;;;-7.40;44.93;100715.88;5069347;28;20040;-76
2022/01/25 11:29:43;;;;;;;71.72;25.13;;;;;;;-7.70;45.48;100729.28;5070917;28;20403;-78
2022/01/25 11:32:11;;;;;;;78.38;29.98;;;;;;;-7.81;45.48;100710.94;5065640;28;20491;-79
2022/01/25 11:34:38;;;;;;;82.60;28.85;;;;;;;-7.89;45.25;100723.78;5088702;28;20119;-80
2022/01/25 11:37:06;;;;;;;75.47;26.73;;;;;;;-7.90;45.35;100715.94;5074378;28;20051;-79
2022/01/25 11:39:32;;;;;;;76.90;28.45;;;;;;;-8.01;45.44;100722.69;5057998;28;20063;-78
2022/01/25 11:42:08;;;;;;;71.25;27.90;;;;;;;-8.10;45.48;100723.41;5058032;28;20087;-78
2022/01/25 11:44:35;;;;;;;72.47;27.17;;;;;;;-8.08;45.60;100727.78;5092568;28;20517;-80
2022/01/25 11:47:11;;;;;;;72.28;27.30;;;;;;;-7.97;45.51;100719.28;5058269;28;20048;-80
2022/01/25 11:49:50;;;;;;;70.95;26.25;;;;;;;-8.09;45.45;100720.81;5079414;28;20044;-82
2022/01/25 11:52:17;;;;;;;68.30;24.40;;;;;;;-8.30;45.50;100704.91;5098604;28;20043;-78
2022/01/25 11:54:43;;;;;;;74.43;26.27;;;;;;;-8.37;45.70;100708.25;5099190;27;20422;-80
2022/01/25 11:57:14;;;;;;;71.40;26.45;;;;;;;-8.54;45.68;100710.53;5077636;28;20044;-81
2022/01/25 11:59:41;;;;;;;86.55;27.55;;;;;;;-8.95;46.08;100704.53;5089062;28;20072;-81
2022/01/25 12:02:07;;;;;;;79.00;28.90;;;;;;;-9.38;46.84;100717.44;5091450;28;20119;-75
2022/01/25 12:04:33;;;;;;;73.65;25.02;;;;;;;-9.74;47.82;100717.50;5074562;28;20131;-78
2022/01/25 12:07:12;;;;;;;70.57;24.70;;;;;;;-9.95;48.08;100709.19;5074386;28;20132;-78
2022/01/25 12:09:44;;;;;;;82.68;27.05;;;;;;;-10.22;48.71;100717.16;5074688;28;20040;-84
2022/01/25 12:12:11;;;;;;;67.35;22.75;;;;;;;-10.55;49.98;100724.06;5074692;28;20040;-77
2022/01/25 12:14:50;;;;;;;81.25;26.23;;;;;;;-10.83;50.34;100726.72;5058116;28;20044;-82
2022/01/25 12:17:24;;;;;;;67.83;23.03;;;;;;;-11.07;50.79;100719.16;5074667;28;20051;-80
2022/01/25 12:19:53;;;;;;;59.65;22.13;;;;;;;-11.18;51.06;100718.84;5104822;27;20114;-78
2022/01/25 12:22:28;;;;;;;39.72;18.38;;;;;;;-11.38;52.06;100722.53;5040951;28;20051;-78
2022/01/25 12:25:12;;;;;;;47.42;17.90;;;;;;;-11.56;52.42;100720.25;5057550;28;20051;-79
2022/01/25 12:27:46;;;;;;;44.25;17.13;;;;;;;-11.68;52.86;100720.75;5060449;28;20070;-77
2022/01/25 12:30:34;;;;;;;32.97;13.93;;;;;;;-11.84;52.99;100718.56;5059312;28;20472;-78
2022/01/25 12:33:15;;;;;;;36.85;12.32;;;;;;;-11.91;53.66;100724.34;5059238;28;20061;-78
2022/01/25 12:35:47;;;;;;;26.55;12.85;;;;;;;-12.12;54.00;100732.25;5058093;28;20049;-76
2022/01/25 12:38:24;;;;;;;33.58;13.13;;;;;;;-12.34;54.99;100728.06;5073471;28;20087;-77
2022/01/25 12:40:52;;;;;;;26.23;12.02;;;;;;;-12.37;55.08;100731.44;5073792;28;20075;-77